sensor_id;sensor_type;location;lat;lon;timestamp;P1;durP1;ratioP1;P2;durP2;ratioP2
41059;SDS011;26811;53.160;8.202;2023-07-20T00:04:59;2.85;;;2.60;;
41059;SDS011;26811;53.160;8.202;2023-07-20T00:09:59;4.32;;;2.80;;
41059;SDS011;26811;53.160;8.202;2023-07-20T00:15:00;3.17;;;2.58;;
41059;SDS011;26811;53.160;8.202;2023-07-20T00:20:00;2.60;;;2.40;;
41059;SDS011;26811;53.160;8.202;2023-07-20T00:25:01;2.90;;;2.67;;
41059;SDS011;26811;53.160;8.202;2023-07-20T00:30:03;2.85;;;2.55;;
41059;SDS011;26811;53.160;8.202;2023-07-20T00:35:04;3.33;;;3.03;;
41059;SDS011;26811;53.160;8.202;2023-07-20T00:40:05;4.18;;;2.72;;
41059;SDS011;26811;53.160;8.202;2023-07-20T00:45:07;3.25;;;2.97;;
41059;SDS011;26811;53.160;8.202;2023-07-20T00:50:08;4.63;;;3.08;;
41059;SDS011;26811;53.160;8.202;2023-07-20T00:55:10;4.78;;;3.50;;
41059;SDS011;26811;53.160;8.202;2023-07-20T01:00:11;4.00;;;3.38;;
41059;SDS011;26811;53.160;8.202;2023-07-20T01:05:12;4.30;;;3.40;;
41059;SDS011;26811;53.160;8.202;2023-07-20T01:15:22;5.22;;;3.50;;
41059;SDS011;26811;53.160;8.202;2023-07-20T01:20:24;2.95;;;2.72;;
41059;SDS011;26811;53.160;8.202;2023-07-20T01:36:03;4.47;;;3.30;;
41059;SDS011;26811;53.160;8.202;2023-07-20T01:41:05;5.70;;;3.20;;
41059;SDS011;26811;53.160;8.202;2023-07-20T01:46:06;5.80;;;3.17;;
41059;SDS011;26811;53.160;8.202;2023-07-20T01:51:06;3.35;;;2.90;;
41059;SDS011;26811;53.160;8.202;2023-07-20T01:56:07;5.30;;;3.00;;
41059;SDS011;26811;53.160;8.202;2023-07-20T02:01:07;4.28;;;3.33;;
41059;SDS011;26811;53.160;8.202;2023-07-20T02:06:08;4.15;;;3.08;;
41059;SDS011;26811;53.160;8.202;2023-07-20T02:11:08;6.20;;;3.42;;
41059;SDS011;26811;53.160;8.202;2023-07-20T02:16:09;6.65;;;3.67;;
41059;SDS011;26811;53.160;8.202;2023-07-20T02:21:11;5.38;;;4.07;;
41059;SDS011;26811;53.160;8.202;2023-07-20T02:26:11;7.82;;;4.80;;
41059;SDS011;26811;53.160;8.202;2023-07-20T02:31:12;6.25;;;4.63;;
41059;SDS011;26811;53.160;8.202;2023-07-20T02:36:12;9.40;;;4.78;;
41059;SDS011;26811;53.160;8.202;2023-07-20T02:41:13;6.30;;;5.03;;
41059;SDS011;26811;53.160;8.202;2023-07-20T02:46:14;6.43;;;5.38;;
41059;SDS011;26811;53.160;8.202;2023-07-20T02:51:14;7.32;;;5.47;;
41059;SDS011;26811;53.160;8.202;2023-07-20T02:56:15;8.63;;;5.68;;
41059;SDS011;26811;53.160;8.202;2023-07-20T03:01:15;8.38;;;6.55;;
41059;SDS011;26811;53.160;8.202;2023-07-20T03:06:16;9.48;;;6.95;;
41059;SDS011;26811;53.160;8.202;2023-07-20T03:11:17;8.88;;;6.78;;
41059;SDS011;26811;53.160;8.202;2023-07-20T03:16:19;10.05;;;7.00;;
41059;SDS011;26811;53.160;8.202;2023-07-20T03:21:20;10.85;;;7.55;;
41059;SDS011;26811;53.160;8.202;2023-07-20T03:26:20;7.90;;;6.72;;
41059;SDS011;26811;53.160;8.202;2023-07-20T03:31:21;10.48;;;7.15;;
41059;SDS011;26811;53.160;8.202;2023-07-20T03:36:21;11.73;;;7.28;;
41059;SDS011;26811;53.160;8.202;2023-07-20T03:41:22;12.55;;;7.40;;
41059;SDS011;26811;53.160;8.202;2023-07-20T03:46:22;11.40;;;6.95;;
41059;SDS011;26811;53.160;8.202;2023-07-20T03:51:23;8.13;;;6.43;;
41059;SDS011;26811;53.160;8.202;2023-07-20T03:56:24;11.30;;;6.75;;
41059;SDS011;26811;53.160;8.202;2023-07-20T04:01:24;8.00;;;6.30;;
41059;SDS011;26811;53.160;8.202;2023-07-20T04:06:25;9.07;;;6.35;;
41059;SDS011;26811;53.160;8.202;2023-07-20T04:11:25;13.43;;;6.97;;
41059;SDS011;26811;53.160;8.202;2023-07-20T04:16:26;11.25;;;6.53;;
41059;SDS011;26811;53.160;8.202;2023-07-20T04:21:27;9.00;;;7.07;;
41059;SDS011;26811;53.160;8.202;2023-07-20T04:26:27;10.13;;;6.35;;
41059;SDS011;26811;53.160;8.202;2023-07-20T04:31:28;9.13;;;6.47;;
41059;SDS011;26811;53.160;8.202;2023-07-20T04:36:28;11.13;;;6.88;;
41059;SDS011;26811;53.160;8.202;2023-07-20T04:41:29;7.70;;;6.60;;
41059;SDS011;26811;53.160;8.202;2023-07-20T04:46:30;10.88;;;6.32;;
41059;SDS011;26811;53.160;8.202;2023-07-20T04:51:30;11.73;;;7.13;;
41059;SDS011;26811;53.160;8.202;2023-07-20T04:56:31;9.77;;;6.55;;
41059;SDS011;26811;53.160;8.202;2023-07-20T05:01:33;10.82;;;6.20;;
41059;SDS011;26811;53.160;8.202;2023-07-20T05:06:33;10.90;;;6.85;;
41059;SDS011;26811;53.160;8.202;2023-07-20T05:11:34;9.75;;;6.75;;
41059;SDS011;26811;53.160;8.202;2023-07-20T05:16:35;8.90;;;6.45;;
41059;SDS011;26811;53.160;8.202;2023-07-20T05:21:35;10.98;;;6.65;;
41059;SDS011;26811;53.160;8.202;2023-07-20T05:26:36;11.77;;;5.78;;
41059;SDS011;26811;53.160;8.202;2023-07-20T05:31:36;6.70;;;5.88;;
41059;SDS011;26811;53.160;8.202;2023-07-20T05:36:37;7.95;;;5.40;;
41059;SDS011;26811;53.160;8.202;2023-07-20T05:41:37;10.73;;;5.38;;
41059;SDS011;26811;53.160;8.202;2023-07-20T05:46:37;5.28;;;3.75;;
41059;SDS011;26811;53.160;8.202;2023-07-20T05:51:38;5.78;;;3.92;;
41059;SDS011;26811;53.160;8.202;2023-07-20T05:56:38;7.38;;;3.70;;
41059;SDS011;26811;53.160;8.202;2023-07-20T06:01:39;5.10;;;4.10;;
41059;SDS011;26811;53.160;8.202;2023-07-20T06:06:39;3.88;;;3.28;;
41059;SDS011;26811;53.160;8.202;2023-07-20T06:11:40;7.03;;;3.50;;
41059;SDS011;26811;53.160;8.202;2023-07-20T06:16:41;6.25;;;3.13;;
41059;SDS011;26811;53.160;8.202;2023-07-20T06:21:41;4.45;;;2.80;;
41059;SDS011;26811;53.160;8.202;2023-07-20T06:32:12;5.30;;;2.58;;
41059;SDS011;26811;53.160;8.202;2023-07-20T06:37:44;10.45;;;2.50;;
41059;SDS011;26811;53.160;8.202;2023-07-20T06:43:23;9.13;;;3.10;;
41059;SDS011;26811;53.160;8.202;2023-07-20T06:49:06;5.00;;;2.78;;
41059;SDS011;26811;53.160;8.202;2023-07-20T07:23:14;5.82;;;1.95;;
41059;SDS011;26811;53.160;8.202;2023-07-20T07:39:21;3.15;;;1.70;;
41059;SDS011;26811;53.160;8.202;2023-07-20T08:01:59;4.38;;;1.80;;
41059;SDS011;26811;53.160;8.202;2023-07-20T08:07:21;7.20;;;2.20;;
41059;SDS011;26811;53.160;8.202;2023-07-20T08:12:25;5.78;;;1.90;;
41059;SDS011;26811;53.160;8.202;2023-07-20T08:17:28;4.65;;;1.80;;
41059;SDS011;26811;53.160;8.202;2023-07-20T08:23:53;7.13;;;2.30;;
41059;SDS011;26811;53.160;8.202;2023-07-20T08:28:31;6.00;;;2.40;;
41059;SDS011;26811;53.160;8.202;2023-07-20T08:45:17;5.15;;;2.42;;
41059;SDS011;26811;53.160;8.202;2023-07-20T08:50:39;6.47;;;2.33;;
41059;SDS011;26811;53.160;8.202;2023-07-20T08:56:16;6.72;;;2.60;;
41059;SDS011;26811;53.160;8.202;2023-07-20T09:01:47;8.57;;;2.22;;
41059;SDS011;26811;53.160;8.202;2023-07-20T09:06:58;8.20;;;2.60;;
41059;SDS011;26811;53.160;8.202;2023-07-20T09:17:43;12.00;;;2.55;;
41059;SDS011;26811;53.160;8.202;2023-07-20T09:23:19;7.55;;;2.60;;
41059;SDS011;26811;53.160;8.202;2023-07-20T09:29:04;8.82;;;3.20;;
41059;SDS011;26811;53.160;8.202;2023-07-20T09:34:26;4.97;;;3.05;;
41059;SDS011;26811;53.160;8.202;2023-07-20T09:51:23;10.63;;;2.90;;
41059;SDS011;26811;53.160;8.202;2023-07-20T10:02:57;5.82;;;2.80;;
41059;SDS011;26811;53.160;8.202;2023-07-20T10:08:15;9.45;;;2.70;;
41059;SDS011;26811;53.160;8.202;2023-07-20T10:13:26;5.38;;;2.38;;
41059;SDS011;26811;53.160;8.202;2023-07-20T10:24:27;8.07;;;2.50;;
41059;SDS011;26811;53.160;8.202;2023-07-20T10:29:56;8.03;;;1.63;;
41059;SDS011;26811;53.160;8.202;2023-07-20T10:34:59;7.50;;;1.85;;
41059;SDS011;26811;53.160;8.202;2023-07-20T10:40:23;2.80;;;1.65;;
41059;SDS011;26811;53.160;8.202;2023-07-20T10:45:39;3.78;;;1.42;;
41059;SDS011;26811;53.160;8.202;2023-07-20T10:50:45;3.08;;;1.20;;
41059;SDS011;26811;53.160;8.202;2023-07-20T10:56:09;5.50;;;1.40;;
41059;SDS011;26811;53.160;8.202;2023-07-20T11:01:14;3.45;;;1.25;;
41059;SDS011;26811;53.160;8.202;2023-07-20T11:11:33;4.95;;;1.30;;
41059;SDS011;26811;53.160;8.202;2023-07-20T11:16:45;4.88;;;1.10;;
41059;SDS011;26811;53.160;8.202;2023-07-20T11:21:54;3.45;;;1.00;;
41059;SDS011;26811;53.160;8.202;2023-07-20T11:27:02;3.55;;;1.00;;
41059;SDS011;26811;53.160;8.202;2023-07-20T11:32:21;3.78;;;1.35;;
41059;SDS011;26811;53.160;8.202;2023-07-20T11:37:25;3.10;;;1.38;;
41059;SDS011;26811;53.160;8.202;2023-07-20T11:42:26;4.75;;;1.50;;
41059;SDS011;26811;53.160;8.202;2023-07-20T11:47:43;6.47;;;1.38;;
41059;SDS011;26811;53.160;8.202;2023-07-20T11:52:44;10.63;;;1.58;;
41059;SDS011;26811;53.160;8.202;2023-07-20T12:03:21;3.80;;;1.40;;
41059;SDS011;26811;53.160;8.202;2023-07-20T12:08:22;3.90;;;1.40;;
41059;SDS011;26811;53.160;8.202;2023-07-20T12:13:23;6.00;;;1.50;;
41059;SDS011;26811;53.160;8.202;2023-07-20T12:18:34;8.18;;;1.38;;
41059;SDS011;26811;53.160;8.202;2023-07-20T12:23:38;3.58;;;1.20;;
41059;SDS011;26811;53.160;8.202;2023-07-20T12:28:42;5.57;;;1.30;;
41059;SDS011;26811;53.160;8.202;2023-07-20T12:34:19;9.02;;;1.15;;
41059;SDS011;26811;53.160;8.202;2023-07-20T12:39:19;5.30;;;1.40;;
41059;SDS011;26811;53.160;8.202;2023-07-20T12:44:29;7.35;;;1.25;;
41059;SDS011;26811;53.160;8.202;2023-07-20T12:49:43;6.97;;;1.65;;
41059;SDS011;26811;53.160;8.202;2023-07-20T12:54:50;8.70;;;1.63;;
41059;SDS011;26811;53.160;8.202;2023-07-20T12:59:51;4.45;;;1.23;;
41059;SDS011;26811;53.160;8.202;2023-07-20T13:04:51;5.75;;;1.60;;
41059;SDS011;26811;53.160;8.202;2023-07-20T13:09:52;6.43;;;1.48;;
41059;SDS011;26811;53.160;8.202;2023-07-20T13:14:53;7.32;;;1.60;;
41059;SDS011;26811;53.160;8.202;2023-07-20T13:19:54;7.20;;;1.30;;
41059;SDS011;26811;53.160;8.202;2023-07-20T13:24:55;8.35;;;1.27;;
41059;SDS011;26811;53.160;8.202;2023-07-20T13:29:56;7.93;;;1.20;;
41059;SDS011;26811;53.160;8.202;2023-07-20T13:34:57;3.58;;;1.13;;
41059;SDS011;26811;53.160;8.202;2023-07-20T13:39:58;3.72;;;1.30;;
41059;SDS011;26811;53.160;8.202;2023-07-20T13:44:58;2.53;;;1.20;;
41059;SDS011;26811;53.160;8.202;2023-07-20T13:49:59;7.90;;;1.70;;
41059;SDS011;26811;53.160;8.202;2023-07-20T13:55:01;5.73;;;1.90;;
41059;SDS011;26811;53.160;8.202;2023-07-20T14:00:04;6.28;;;1.60;;
41059;SDS011;26811;53.160;8.202;2023-07-20T14:05:08;7.35;;;1.45;;
41059;SDS011;26811;53.160;8.202;2023-07-20T14:10:09;5.20;;;1.80;;
41059;SDS011;26811;53.160;8.202;2023-07-20T14:15:10;6.53;;;1.63;;
41059;SDS011;26811;53.160;8.202;2023-07-20T14:20:11;12.52;;;2.03;;
41059;SDS011;26811;53.160;8.202;2023-07-20T14:25:11;5.32;;;1.40;;
41059;SDS011;26811;53.160;8.202;2023-07-20T14:30:12;10.25;;;1.48;;
41059;SDS011;26811;53.160;8.202;2023-07-20T14:35:13;3.80;;;1.60;;
41059;SDS011;26811;53.160;8.202;2023-07-20T14:40:14;5.32;;;1.75;;
41059;SDS011;26811;53.160;8.202;2023-07-20T14:45:14;6.35;;;1.40;;
41059;SDS011;26811;53.160;8.202;2023-07-20T14:50:15;8.20;;;1.90;;
41059;SDS011;26811;53.160;8.202;2023-07-20T14:55:15;4.22;;;1.67;;
41059;SDS011;26811;53.160;8.202;2023-07-20T15:00:17;5.03;;;1.70;;
41059;SDS011;26811;53.160;8.202;2023-07-20T15:05:24;4.53;;;1.52;;
41059;SDS011;26811;53.160;8.202;2023-07-20T15:10:26;4.43;;;1.40;;
41059;SDS011;26811;53.160;8.202;2023-07-20T15:15:27;6.18;;;1.40;;
41059;SDS011;26811;53.160;8.202;2023-07-20T15:20:27;5.45;;;1.67;;
41059;SDS011;26811;53.160;8.202;2023-07-20T15:25:28;3.50;;;1.45;;
41059;SDS011;26811;53.160;8.202;2023-07-20T15:30:37;6.38;;;1.75;;
41059;SDS011;26811;53.160;8.202;2023-07-20T15:35:38;3.67;;;1.33;;
41059;SDS011;26811;53.160;8.202;2023-07-20T15:40:38;6.43;;;1.73;;
41059;SDS011;26811;53.160;8.202;2023-07-20T15:45:45;5.85;;;1.60;;
41059;SDS011;26811;53.160;8.202;2023-07-20T15:50:48;8.20;;;2.15;;
41059;SDS011;26811;53.160;8.202;2023-07-20T15:55:53;4.70;;;1.80;;
41059;SDS011;26811;53.160;8.202;2023-07-20T16:00:55;9.10;;;2.63;;
41059;SDS011;26811;53.160;8.202;2023-07-20T16:05:56;8.25;;;2.60;;
41059;SDS011;26811;53.160;8.202;2023-07-20T16:10:56;4.63;;;2.45;;
41059;SDS011;26811;53.160;8.202;2023-07-20T16:15:57;5.05;;;2.63;;
41059;SDS011;26811;53.160;8.202;2023-07-20T16:20:58;8.00;;;3.10;;
41059;SDS011;26811;53.160;8.202;2023-07-20T16:25:59;7.27;;;2.70;;
41059;SDS011;26811;53.160;8.202;2023-07-20T16:31:00;5.00;;;2.90;;
41059;SDS011;26811;53.160;8.202;2023-07-20T16:36:08;5.05;;;2.33;;
41059;SDS011;26811;53.160;8.202;2023-07-20T16:41:14;8.23;;;2.40;;
41059;SDS011;26811;53.160;8.202;2023-07-20T16:46:14;6.10;;;2.53;;
41059;SDS011;26811;53.160;8.202;2023-07-20T16:51:15;6.80;;;2.40;;
41059;SDS011;26811;53.160;8.202;2023-07-20T16:56:15;4.82;;;2.28;;
41059;SDS011;26811;53.160;8.202;2023-07-20T17:01:16;6.97;;;2.60;;
41059;SDS011;26811;53.160;8.202;2023-07-20T17:06:16;3.95;;;2.15;;
41059;SDS011;26811;53.160;8.202;2023-07-20T17:11:17;4.25;;;2.08;;
41059;SDS011;26811;53.160;8.202;2023-07-20T17:16:18;3.08;;;2.00;;
41059;SDS011;26811;53.160;8.202;2023-07-20T17:21:19;7.90;;;2.43;;
41059;SDS011;26811;53.160;8.202;2023-07-20T17:26:20;7.13;;;2.20;;
41059;SDS011;26811;53.160;8.202;2023-07-20T17:31:20;5.50;;;2.28;;
41059;SDS011;26811;53.160;8.202;2023-07-20T17:36:25;2.92;;;1.73;;
41059;SDS011;26811;53.160;8.202;2023-07-20T17:41:26;5.10;;;1.80;;
41059;SDS011;26811;53.160;8.202;2023-07-20T17:46:26;9.75;;;4.68;;
41059;SDS011;26811;53.160;8.202;2023-07-20T17:51:27;8.05;;;3.75;;
41059;SDS011;26811;53.160;8.202;2023-07-20T17:56:28;5.50;;;2.60;;
41059;SDS011;26811;53.160;8.202;2023-07-20T18:01:28;5.28;;;2.67;;
41059;SDS011;26811;53.160;8.202;2023-07-20T18:06:29;5.50;;;2.85;;
41059;SDS011;26811;53.160;8.202;2023-07-20T18:11:29;6.32;;;2.55;;
41059;SDS011;26811;53.160;8.202;2023-07-20T18:16:30;5.75;;;2.45;;
41059;SDS011;26811;53.160;8.202;2023-07-20T18:26:33;4.60;;;2.35;;
41059;SDS011;26811;53.160;8.202;2023-07-20T18:31:33;5.65;;;2.70;;
41059;SDS011;26811;53.160;8.202;2023-07-20T18:36:34;3.60;;;2.30;;
41059;SDS011;26811;53.160;8.202;2023-07-20T18:41:34;8.02;;;2.75;;
41059;SDS011;26811;53.160;8.202;2023-07-20T18:46:35;10.43;;;2.92;;
41059;SDS011;26811;53.160;8.202;2023-07-20T18:51:35;3.78;;;1.98;;
41059;SDS011;26811;53.160;8.202;2023-07-20T18:56:36;5.45;;;2.20;;
41059;SDS011;26811;53.160;8.202;2023-07-20T19:01:36;4.70;;;2.30;;
41059;SDS011;26811;53.160;8.202;2023-07-20T19:06:37;7.55;;;2.80;;
41059;SDS011;26811;53.160;8.202;2023-07-20T19:11:38;9.02;;;2.50;;
41059;SDS011;26811;53.160;8.202;2023-07-20T19:16:38;5.03;;;2.50;;
41059;SDS011;26811;53.160;8.202;2023-07-20T19:21:39;5.38;;;2.50;;
41059;SDS011;26811;53.160;8.202;2023-07-20T19:26:40;6.70;;;2.83;;
41059;SDS011;26811;53.160;8.202;2023-07-20T19:31:40;8.02;;;3.15;;
41059;SDS011;26811;53.160;8.202;2023-07-20T19:36:41;8.75;;;3.33;;
41059;SDS011;26811;53.160;8.202;2023-07-20T19:41:41;3.72;;;2.78;;
41059;SDS011;26811;53.160;8.202;2023-07-20T19:46:42;7.35;;;2.83;;
41059;SDS011;26811;53.160;8.202;2023-07-20T19:51:42;8.00;;;2.95;;
41059;SDS011;26811;53.160;8.202;2023-07-20T19:56:43;10.10;;;4.13;;
41059;SDS011;26811;53.160;8.202;2023-07-20T20:01:43;5.25;;;3.35;;
41059;SDS011;26811;53.160;8.202;2023-07-20T20:06:44;4.72;;;2.97;;
41059;SDS011;26811;53.160;8.202;2023-07-20T20:11:44;7.15;;;3.25;;
41059;SDS011;26811;53.160;8.202;2023-07-20T20:16:46;5.78;;;3.05;;
41059;SDS011;26811;53.160;8.202;2023-07-20T20:21:46;6.45;;;3.25;;
41059;SDS011;26811;53.160;8.202;2023-07-20T20:26:47;11.10;;;4.40;;
41059;SDS011;26811;53.160;8.202;2023-07-20T20:31:47;8.63;;;2.90;;
41059;SDS011;26811;53.160;8.202;2023-07-20T20:36:48;5.60;;;2.75;;
41059;SDS011;26811;53.160;8.202;2023-07-20T20:41:49;8.30;;;3.30;;
41059;SDS011;26811;53.160;8.202;2023-07-20T20:46:50;9.35;;;3.40;;
41059;SDS011;26811;53.160;8.202;2023-07-20T20:51:50;7.07;;;3.03;;
41059;SDS011;26811;53.160;8.202;2023-07-20T20:56:51;5.97;;;2.70;;
41059;SDS011;26811;53.160;8.202;2023-07-20T21:01:51;5.15;;;2.53;;
41059;SDS011;26811;53.160;8.202;2023-07-20T21:06:52;5.35;;;2.53;;
41059;SDS011;26811;53.160;8.202;2023-07-20T21:11:52;4.60;;;2.22;;
41059;SDS011;26811;53.160;8.202;2023-07-20T21:16:53;7.03;;;2.42;;
41059;SDS011;26811;53.160;8.202;2023-07-20T21:21:53;8.15;;;2.97;;
41059;SDS011;26811;53.160;8.202;2023-07-20T21:26:54;7.38;;;2.45;;
41059;SDS011;26811;53.160;8.202;2023-07-20T21:31:54;6.80;;;2.38;;
41059;SDS011;26811;53.160;8.202;2023-07-20T21:36:55;3.83;;;2.47;;
41059;SDS011;26811;53.160;8.202;2023-07-20T21:41:55;6.13;;;2.47;;
41059;SDS011;26811;53.160;8.202;2023-07-20T21:46:56;6.28;;;2.60;;
41059;SDS011;26811;53.160;8.202;2023-07-20T21:51:57;8.18;;;2.80;;
41059;SDS011;26811;53.160;8.202;2023-07-20T21:56:57;5.30;;;3.08;;
41059;SDS011;26811;53.160;8.202;2023-07-20T22:01:58;6.32;;;2.90;;
41059;SDS011;26811;53.160;8.202;2023-07-20T22:06:58;4.82;;;2.45;;
41059;SDS011;26811;53.160;8.202;2023-07-20T22:11:59;5.70;;;2.55;;
41059;SDS011;26811;53.160;8.202;2023-07-20T22:16:59;5.40;;;2.75;;
41059;SDS011;26811;53.160;8.202;2023-07-20T22:22:00;7.55;;;3.00;;
41059;SDS011;26811;53.160;8.202;2023-07-20T22:27:02;9.23;;;3.42;;
41059;SDS011;26811;53.160;8.202;2023-07-20T22:32:03;7.55;;;3.20;;
41059;SDS011;26811;53.160;8.202;2023-07-20T22:37:05;5.90;;;2.92;;
41059;SDS011;26811;53.160;8.202;2023-07-20T22:42:06;7.28;;;3.42;;
41059;SDS011;26811;53.160;8.202;2023-07-20T22:47:06;7.22;;;3.10;;
41059;SDS011;26811;53.160;8.202;2023-07-20T22:52:07;7.25;;;3.00;;
41059;SDS011;26811;53.160;8.202;2023-07-20T22:57:08;7.38;;;3.13;;
41059;SDS011;26811;53.160;8.202;2023-07-20T23:02:09;7.13;;;3.05;;
41059;SDS011;26811;53.160;8.202;2023-07-20T23:07:09;7.38;;;3.00;;
41059;SDS011;26811;53.160;8.202;2023-07-20T23:12:10;5.65;;;3.10;;
41059;SDS011;26811;53.160;8.202;2023-07-20T23:17:11;6.65;;;3.20;;
41059;SDS011;26811;53.160;8.202;2023-07-20T23:22:11;6.60;;;3.38;;
41059;SDS011;26811;53.160;8.202;2023-07-20T23:27:13;7.25;;;3.28;;
41059;SDS011;26811;53.160;8.202;2023-07-20T23:32:13;10.38;;;3.40;;
41059;SDS011;26811;53.160;8.202;2023-07-20T23:37:15;8.88;;;3.10;;
41059;SDS011;26811;53.160;8.202;2023-07-20T23:42:16;7.63;;;3.72;;
41059;SDS011;26811;53.160;8.202;2023-07-20T23:47:16;7.97;;;3.80;;
41059;SDS011;26811;53.160;8.202;2023-07-20T23:52:17;5.47;;;3.60;;
41059;SDS011;26811;53.160;8.202;2023-07-20T23:57:18;4.50;;;3.30;;
